sensor_id;sensor_type;location;lat;lon;timestamp;pressure;altitude;pressure_sealevel;temperature;humidity
37170;BME280;23062;13.952;100.608;2023-03-23T00:00:09;1008.30;;;31.34;64.61
37170;BME280;23062;13.952;100.608;2023-03-23T00:04:36;1008.31;;;31.34;64.58
37170;BME280;23062;13.952;100.608;2023-03-23T00:09:02;1008.37;;;31.36;64.58
37170;BME280;23062;13.952;100.608;2023-03-23T00:13:30;1008.57;;;31.38;64.58
37170;BME280;23062;13.952;100.608;2023-03-23T00:17:57;1008.62;;;31.37;64.66
37170;BME280;23062;13.952;100.608;2023-03-23T00:22:24;1008.68;;;31.38;64.77
37170;BME280;23062;13.952;100.608;2023-03-23T00:26:49;1008.72;;;31.39;64.82
37170;BME280;23062;13.952;100.608;2023-03-23T00:31:15;1008.80;;;31.40;64.78
37170;BME280;23062;13.952;100.608;2023-03-23T00:35:41;1008.90;;;31.43;64.76
37170;BME280;23062;13.952;100.608;2023-03-23T00:40:11;1008.96;;;31.42;64.82
37170;BME280;23062;13.952;100.608;2023-03-23T00:44:36;1009.04;;;31.41;64.81
37170;BME280;23062;13.952;100.608;2023-03-23T00:49:03;1009.03;;;31.40;64.81
37170;BME280;23062;13.952;100.608;2023-03-23T00:53:28;1009.17;;;31.42;64.77
37170;BME280;23062;13.952;100.608;2023-03-23T00:57:57;1009.29;;;31.43;64.75
37170;BME280;23062;13.952;100.608;2023-03-23T01:02:22;1009.33;;;31.43;64.66
37170;BME280;23062;13.952;100.608;2023-03-23T01:06:50;1009.34;;;31.44;64.62
37170;BME280;23062;13.952;100.608;2023-03-23T01:11:18;1009.43;;;31.46;64.54
37170;BME280;23062;13.952;100.608;2023-03-23T01:15:43;1009.45;;;31.46;64.40
37170;BME280;23062;13.952;100.608;2023-03-23T01:20:08;1009.49;;;31.47;64.40
37170;BME280;23062;13.952;100.608;2023-03-23T01:24:34;1009.52;;;31.48;64.65
37170;BME280;23062;13.952;100.608;2023-03-23T01:29:00;1009.62;;;31.50;64.69
37170;BME280;23062;13.952;100.608;2023-03-23T01:33:26;1009.65;;;31.45;65.05
37170;BME280;23062;13.952;100.608;2023-03-23T01:37:50;1009.66;;;31.40;65.62
37170;BME280;23062;13.952;100.608;2023-03-23T01:42:15;1009.73;;;31.41;65.22
37170;BME280;23062;13.952;100.608;2023-03-23T01:46:41;1009.79;;;31.47;64.83
37170;BME280;23062;13.952;100.608;2023-03-23T01:51:12;1009.87;;;31.52;64.80
37170;BME280;23062;13.952;100.608;2023-03-23T01:55:39;1009.98;;;31.54;64.54
37170;BME280;23062;13.952;100.608;2023-03-23T02:00:09;1010.04;;;31.44;64.95
37170;BME280;23062;13.952;100.608;2023-03-23T02:04:38;1010.10;;;31.42;64.89
37170;BME280;23062;13.952;100.608;2023-03-23T02:09:06;1010.11;;;31.45;64.72
37170;BME280;23062;13.952;100.608;2023-03-23T02:13:31;1010.17;;;31.52;64.39
37170;BME280;23062;13.952;100.608;2023-03-23T02:23:20;1010.23;;;31.63;63.72
37170;BME280;23062;13.952;100.608;2023-03-23T02:27:59;1010.17;;;31.67;63.54
37170;BME280;23062;13.952;100.608;2023-03-23T02:37:18;1010.25;;;31.81;62.72
37170;BME280;23062;13.952;100.608;2023-03-23T02:41:54;1010.25;;;31.81;62.33
37170;BME280;23062;13.952;100.608;2023-03-23T02:46:22;1010.27;;;31.83;62.18
37170;BME280;23062;13.952;100.608;2023-03-23T02:50:49;1010.22;;;31.87;62.18
37170;BME280;23062;13.952;100.608;2023-03-23T02:55:33;1010.21;;;31.88;62.10
37170;BME280;23062;13.952;100.608;2023-03-23T03:00:05;1010.27;;;31.97;61.44
37170;BME280;23062;13.952;100.608;2023-03-23T03:04:33;1010.22;;;31.99;60.80
37170;BME280;23062;13.952;100.608;2023-03-23T03:18:42;1010.20;;;32.04;60.87
37170;BME280;23062;13.952;100.608;2023-03-23T03:23:03;1010.11;;;32.12;60.07
37170;BME280;23062;13.952;100.608;2023-03-23T03:27:35;1010.07;;;32.16;59.92
37170;BME280;23062;13.952;100.608;2023-03-23T03:32:02;1010.11;;;32.19;59.79
37170;BME280;23062;13.952;100.608;2023-03-23T03:36:30;1010.05;;;32.29;59.07
37170;BME280;23062;13.952;100.608;2023-03-23T03:40:58;1010.00;;;32.28;59.27
37170;BME280;23062;13.952;100.608;2023-03-23T03:45:25;1010.00;;;32.27;59.38
37170;BME280;23062;13.952;100.608;2023-03-23T03:49:50;1009.97;;;32.32;59.28
37170;BME280;23062;13.952;100.608;2023-03-23T03:54:17;1009.85;;;32.30;59.07
37170;BME280;23062;13.952;100.608;2023-03-23T03:58:42;1009.85;;;32.33;58.74
37170;BME280;23062;13.952;100.608;2023-03-23T04:03:10;1009.80;;;32.33;58.74
37170;BME280;23062;13.952;100.608;2023-03-23T04:07:39;1009.78;;;32.35;58.18
37170;BME280;23062;13.952;100.608;2023-03-23T04:12:05;1009.65;;;32.38;57.51
37170;BME280;23062;13.952;100.608;2023-03-23T04:16:31;1009.65;;;32.39;57.62
37170;BME280;23062;13.952;100.608;2023-03-23T04:20:57;1009.56;;;32.34;58.10
37170;BME280;23062;13.952;100.608;2023-03-23T04:25:22;1009.51;;;32.33;58.15
37170;BME280;23062;13.952;100.608;2023-03-23T04:29:48;1009.50;;;32.39;57.98
37170;BME280;23062;13.952;100.608;2023-03-23T04:34:14;1009.49;;;32.45;57.51
37170;BME280;23062;13.952;100.608;2023-03-23T04:38:39;1009.29;;;32.49;57.08
37170;BME280;23062;13.952;100.608;2023-03-23T04:43:04;1009.28;;;32.49;57.48
37170;BME280;23062;13.952;100.608;2023-03-23T04:47:33;1009.22;;;32.54;57.35
37170;BME280;23062;13.952;100.608;2023-03-23T04:51:59;1009.10;;;32.53;57.62
37170;BME280;23062;13.952;100.608;2023-03-23T04:56:24;1009.06;;;32.55;57.19
37170;BME280;23062;13.952;100.608;2023-03-23T05:00:50;1008.95;;;32.59;56.89
37170;BME280;23062;13.952;100.608;2023-03-23T05:05:15;1008.81;;;32.57;56.94
37170;BME280;23062;13.952;100.608;2023-03-23T05:09:48;1008.70;;;32.62;56.69
37170;BME280;23062;13.952;100.608;2023-03-23T05:14:13;1008.68;;;32.61;56.59
37170;BME280;23062;13.952;100.608;2023-03-23T05:18:44;1008.55;;;32.57;56.69
37170;BME280;23062;13.952;100.608;2023-03-23T05:23:14;1008.53;;;32.60;56.52
37170;BME280;23062;13.952;100.608;2023-03-23T05:27:39;1008.35;;;32.58;56.25
37170;BME280;23062;13.952;100.608;2023-03-23T05:32:08;1008.28;;;32.63;55.80
37170;BME280;23062;13.952;100.608;2023-03-23T05:36:34;1008.20;;;32.66;55.92
37170;BME280;23062;13.952;100.608;2023-03-23T05:41:01;1008.13;;;32.68;56.05
37170;BME280;23062;13.952;100.608;2023-03-23T05:45:27;1008.08;;;32.73;55.86
37170;BME280;23062;13.952;100.608;2023-03-23T05:49:53;1007.98;;;32.73;55.78
37170;BME280;23062;13.952;100.608;2023-03-23T05:54:18;1007.87;;;32.76;55.39
37170;BME280;23062;13.952;100.608;2023-03-23T05:58:43;1007.83;;;32.78;55.13
37170;BME280;23062;13.952;100.608;2023-03-23T06:03:09;1007.76;;;32.83;54.76
37170;BME280;23062;13.952;100.608;2023-03-23T06:07:37;1007.71;;;32.83;55.23
37170;BME280;23062;13.952;100.608;2023-03-23T06:12:02;1007.65;;;32.85;55.36
37170;BME280;23062;13.952;100.608;2023-03-23T06:16:29;1007.55;;;32.91;54.93
37170;BME280;23062;13.952;100.608;2023-03-23T06:20:54;1007.55;;;32.95;55.39
37170;BME280;23062;13.952;100.608;2023-03-23T06:25:19;1007.46;;;33.05;55.41
37170;BME280;23062;13.952;100.608;2023-03-23T06:29:45;1007.34;;;33.02;55.56
37170;BME280;23062;13.952;100.608;2023-03-23T06:34:10;1007.32;;;33.00;55.54
37170;BME280;23062;13.952;100.608;2023-03-23T06:38:35;1007.22;;;33.01;55.42
37170;BME280;23062;13.952;100.608;2023-03-23T06:43:00;1007.12;;;32.93;55.70
37170;BME280;23062;13.952;100.608;2023-03-23T06:47:25;1007.06;;;32.94;55.82
37170;BME280;23062;13.952;100.608;2023-03-23T06:51:55;1006.97;;;32.96;55.85
37170;BME280;23062;13.952;100.608;2023-03-23T06:56:21;1006.91;;;33.02;55.55
37170;BME280;23062;13.952;100.608;2023-03-23T07:00:53;1006.85;;;33.09;55.20
37170;BME280;23062;13.952;100.608;2023-03-23T07:05:16;1006.70;;;33.14;54.98
37170;BME280;23062;13.952;100.608;2023-03-23T07:09:42;1006.69;;;33.05;55.27
37170;BME280;23062;13.952;100.608;2023-03-23T07:14:10;1006.67;;;33.12;55.06
37170;BME280;23062;13.952;100.608;2023-03-23T07:18:35;1006.55;;;33.08;55.32
37170;BME280;23062;13.952;100.608;2023-03-23T07:23:06;1006.47;;;33.18;55.08
37170;BME280;23062;13.952;100.608;2023-03-23T07:27:34;1006.43;;;33.19;55.16
37170;BME280;23062;13.952;100.608;2023-03-23T07:31:59;1006.36;;;33.12;55.43
37170;BME280;23062;13.952;100.608;2023-03-23T07:36:23;1006.28;;;33.12;55.20
37170;BME280;23062;13.952;100.608;2023-03-23T07:40:48;1006.22;;;33.19;54.69
37170;BME280;23062;13.952;100.608;2023-03-23T07:45:14;1006.14;;;33.21;54.47
37170;BME280;23062;13.952;100.608;2023-03-23T07:49:47;1006.06;;;33.12;54.94
37170;BME280;23062;13.952;100.608;2023-03-23T07:54:13;1006.05;;;33.20;54.75
37170;BME280;23062;13.952;100.608;2023-03-23T07:58:40;1006.01;;;33.12;55.15
37170;BME280;23062;13.952;100.608;2023-03-23T08:03:06;1005.95;;;33.22;54.67
37170;BME280;23062;13.952;100.608;2023-03-23T08:07:31;1005.88;;;33.32;53.99
37170;BME280;23062;13.952;100.608;2023-03-23T08:11:57;1005.89;;;33.28;53.99
37170;BME280;23062;13.952;100.608;2023-03-23T08:16:22;1005.81;;;33.17;54.49
37170;BME280;23062;13.952;100.608;2023-03-23T08:25:17;1005.68;;;33.20;54.37
37170;BME280;23062;13.952;100.608;2023-03-23T08:29:44;1005.70;;;33.18;54.39
37170;BME280;23062;13.952;100.608;2023-03-23T08:34:07;1005.59;;;33.17;54.20
37170;BME280;23062;13.952;100.608;2023-03-23T08:38:32;1005.61;;;33.20;54.24
37170;BME280;23062;13.952;100.608;2023-03-23T08:42:58;1005.63;;;33.28;53.54
37170;BME280;23062;13.952;100.608;2023-03-23T08:47:25;1005.59;;;33.27;53.57
37170;BME280;23062;13.952;100.608;2023-03-23T08:51:51;1005.66;;;33.32;52.83
37170;BME280;23062;13.952;100.608;2023-03-23T08:56:20;1005.59;;;33.23;52.99
37170;BME280;23062;13.952;100.608;2023-03-23T09:00:45;1005.59;;;33.26;52.43
37170;BME280;23062;13.952;100.608;2023-03-23T09:05:11;1005.53;;;33.20;52.64
37170;BME280;23062;13.952;100.608;2023-03-23T09:09:36;1005.53;;;33.16;52.69
37170;BME280;23062;13.952;100.608;2023-03-23T09:14:04;1005.52;;;33.16;52.65
37170;BME280;23062;13.952;100.608;2023-03-23T09:18:32;1005.53;;;33.15;52.50
37170;BME280;23062;13.952;100.608;2023-03-23T09:23:01;1005.49;;;33.16;52.03
37170;BME280;23062;13.952;100.608;2023-03-23T09:27:27;1005.45;;;33.18;51.76
37170;BME280;23062;13.952;100.608;2023-03-23T09:31:52;1005.46;;;33.17;51.95
37170;BME280;23062;13.952;100.608;2023-03-23T09:36:23;1005.46;;;33.13;52.43
37170;BME280;23062;13.952;100.608;2023-03-23T09:40:46;1005.47;;;33.10;52.74
37170;BME280;23062;13.952;100.608;2023-03-23T09:45:24;1005.47;;;33.16;52.22
37170;BME280;23062;13.952;100.608;2023-03-23T09:49:57;1005.48;;;33.14;51.71
37170;BME280;23062;13.952;100.608;2023-03-23T09:54:30;1005.39;;;33.13;51.28
37170;BME280;23062;13.952;100.608;2023-03-23T09:58:58;1005.44;;;33.13;51.34
37170;BME280;23062;13.952;100.608;2023-03-23T10:03:30;1005.47;;;33.14;51.19
37170;BME280;23062;13.952;100.608;2023-03-23T10:07:56;1005.47;;;33.12;51.27
37170;BME280;23062;13.952;100.608;2023-03-23T10:12:41;1005.49;;;33.13;50.86
37170;BME280;23062;13.952;100.608;2023-03-23T10:17:21;1005.49;;;33.14;50.78
37170;BME280;23062;13.952;100.608;2023-03-23T10:21:56;1005.54;;;33.13;50.78
37170;BME280;23062;13.952;100.608;2023-03-23T10:26:39;1005.55;;;33.11;51.07
37170;BME280;23062;13.952;100.608;2023-03-23T10:31:04;1005.53;;;33.07;51.26
37170;BME280;23062;13.952;100.608;2023-03-23T10:35:53;1005.48;;;33.07;50.96
37170;BME280;23062;13.952;100.608;2023-03-23T10:40:22;1005.51;;;33.03;50.65
37170;BME280;23062;13.952;100.608;2023-03-23T10:49:49;1005.46;;;33.01;50.81
37170;BME280;23062;13.952;100.608;2023-03-23T10:54:11;1005.45;;;32.99;51.04
37170;BME280;23062;13.952;100.608;2023-03-23T10:58:36;1005.46;;;32.97;51.40
37170;BME280;23062;13.952;100.608;2023-03-23T11:03:06;1005.54;;;32.96;51.47
37170;BME280;23062;13.952;100.608;2023-03-23T11:07:35;1005.52;;;32.95;51.42
37170;BME280;23062;13.952;100.608;2023-03-23T11:12:01;1005.58;;;32.95;51.31
37170;BME280;23062;13.952;100.608;2023-03-23T11:16:33;1005.60;;;32.95;51.49
37170;BME280;23062;13.952;100.608;2023-03-23T11:20:59;1005.72;;;32.93;51.23
37170;BME280;23062;13.952;100.608;2023-03-23T11:25:24;1005.78;;;32.92;51.41
37170;BME280;23062;13.952;100.608;2023-03-23T11:29:54;1005.83;;;32.92;51.83
37170;BME280;23062;13.952;100.608;2023-03-23T11:34:35;1005.88;;;32.90;52.25
37170;BME280;23062;13.952;100.608;2023-03-23T11:39:00;1006.00;;;32.91;52.57
37170;BME280;23062;13.952;100.608;2023-03-23T11:43:26;1006.02;;;32.89;52.92
37170;BME280;23062;13.952;100.608;2023-03-23T11:57:27;1006.17;;;32.84;53.44
37170;BME280;23062;13.952;100.608;2023-03-23T12:02:17;1006.14;;;32.82;53.91
37170;BME280;23062;13.952;100.608;2023-03-23T12:16:52;1006.24;;;32.81;54.65
37170;BME280;23062;13.952;100.608;2023-03-23T12:26:02;1006.32;;;32.82;55.08
37170;BME280;23062;13.952;100.608;2023-03-23T12:30:29;1006.37;;;32.78;55.30
37170;BME280;23062;13.952;100.608;2023-03-23T12:44:09;1006.55;;;32.79;55.83
37170;BME280;23062;13.952;100.608;2023-03-23T12:48:40;1006.61;;;32.78;56.21
37170;BME280;23062;13.952;100.608;2023-03-23T12:53:32;1006.76;;;32.78;56.46
37170;BME280;23062;13.952;100.608;2023-03-23T12:57:59;1006.69;;;32.77;56.63
37170;BME280;23062;13.952;100.608;2023-03-23T13:02:30;1006.73;;;32.76;56.75
37170;BME280;23062;13.952;100.608;2023-03-23T13:07:00;1006.82;;;32.75;56.86
37170;BME280;23062;13.952;100.608;2023-03-23T13:11:32;1006.88;;;32.74;57.02
37170;BME280;23062;13.952;100.608;2023-03-23T13:20:38;1007.03;;;32.73;57.34
37170;BME280;23062;13.952;100.608;2023-03-23T13:25:03;1007.06;;;32.72;57.53
37170;BME280;23062;13.952;100.608;2023-03-23T13:29:29;1007.06;;;32.73;57.63
37170;BME280;23062;13.952;100.608;2023-03-23T13:38:49;1007.17;;;32.71;57.91
37170;BME280;23062;13.952;100.608;2023-03-23T13:43:32;1007.22;;;32.70;58.06
37170;BME280;23062;13.952;100.608;2023-03-23T13:57:32;1007.24;;;32.93;57.28
37170;BME280;23062;13.952;100.608;2023-03-23T14:06:46;1007.32;;;32.96;57.27
37170;BME280;23062;13.952;100.608;2023-03-23T14:11:16;1007.44;;;32.96;57.31
37170;BME280;23062;13.952;100.608;2023-03-23T14:16:01;1007.53;;;32.95;57.38
37170;BME280;23062;13.952;100.608;2023-03-23T14:20:33;1007.67;;;32.95;57.49
37170;BME280;23062;13.952;100.608;2023-03-23T14:25:17;1007.70;;;32.94;57.53
37170;BME280;23062;13.952;100.608;2023-03-23T14:29:40;1007.69;;;32.93;57.63
37170;BME280;23062;13.952;100.608;2023-03-23T14:34:16;1007.59;;;32.91;57.72
37170;BME280;23062;13.952;100.608;2023-03-23T14:38:34;1007.66;;;32.91;57.72
37170;BME280;23062;13.952;100.608;2023-03-23T14:43:00;1007.74;;;32.90;57.85
37170;BME280;23062;13.952;100.608;2023-03-23T14:47:31;1007.73;;;32.90;57.91
37170;BME280;23062;13.952;100.608;2023-03-23T14:52:01;1007.82;;;32.90;57.94
37170;BME280;23062;13.952;100.608;2023-03-23T14:56:24;1007.88;;;32.89;57.93
37170;BME280;23062;13.952;100.608;2023-03-23T15:01:06;1007.94;;;32.88;58.01
37170;BME280;23062;13.952;100.608;2023-03-23T15:05:34;1008.04;;;32.88;57.98
37170;BME280;23062;13.952;100.608;2023-03-23T15:10:07;1008.12;;;32.87;58.14
37170;BME280;23062;13.952;100.608;2023-03-23T15:14:45;1008.18;;;32.86;58.13
37170;BME280;23062;13.952;100.608;2023-03-23T15:19:21;1008.25;;;32.85;58.32
37170;BME280;23062;13.952;100.608;2023-03-23T15:23:44;1008.30;;;32.83;58.27
37170;BME280;23062;13.952;100.608;2023-03-23T15:28:17;1008.44;;;32.83;58.35
37170;BME280;23062;13.952;100.608;2023-03-23T15:32:44;1008.44;;;32.83;58.27
37170;BME280;23062;13.952;100.608;2023-03-23T15:37:21;1008.47;;;32.83;58.39
37170;BME280;23062;13.952;100.608;2023-03-23T15:41:48;1008.51;;;32.82;58.39
37170;BME280;23062;13.952;100.608;2023-03-23T15:50:40;1008.65;;;32.80;58.64
37170;BME280;23062;13.952;100.608;2023-03-23T15:55:35;1008.69;;;32.79;58.70
37170;BME280;23062;13.952;100.608;2023-03-23T15:59:56;1008.70;;;32.78;58.78
37170;BME280;23062;13.952;100.608;2023-03-23T16:04:21;1008.73;;;32.76;58.92
37170;BME280;23062;13.952;100.608;2023-03-23T16:08:47;1008.77;;;32.76;58.98
37170;BME280;23062;13.952;100.608;2023-03-23T16:13:12;1008.73;;;32.74;59.09
37170;BME280;23062;13.952;100.608;2023-03-23T16:17:37;1008.66;;;32.73;59.22
37170;BME280;23062;13.952;100.608;2023-03-23T16:22:03;1008.68;;;32.73;59.33
37170;BME280;23062;13.952;100.608;2023-03-23T16:26:28;1008.65;;;32.73;59.37
37170;BME280;23062;13.952;100.608;2023-03-23T16:30:54;1008.67;;;32.71;59.41
37170;BME280;23062;13.952;100.608;2023-03-23T16:35:22;1008.58;;;32.70;59.44
37170;BME280;23062;13.952;100.608;2023-03-23T16:39:47;1008.54;;;32.68;59.51
37170;BME280;23062;13.952;100.608;2023-03-23T16:44:15;1008.49;;;32.68;59.58
37170;BME280;23062;13.952;100.608;2023-03-23T16:48:40;1008.48;;;32.68;59.66
37170;BME280;23062;13.952;100.608;2023-03-23T16:53:08;1008.48;;;32.67;59.70
37170;BME280;23062;13.952;100.608;2023-03-23T16:57:34;1008.49;;;32.66;59.70
37170;BME280;23062;13.952;100.608;2023-03-23T17:02:03;1008.47;;;32.65;59.68
37170;BME280;23062;13.952;100.608;2023-03-23T17:06:28;1008.52;;;32.64;59.71
37170;BME280;23062;13.952;100.608;2023-03-23T17:10:55;1008.45;;;32.63;59.78
37170;BME280;23062;13.952;100.608;2023-03-23T17:15:23;1008.38;;;32.62;59.79
37170;BME280;23062;13.952;100.608;2023-03-23T17:19:48;1008.26;;;32.61;59.71
37170;BME280;23062;13.952;100.608;2023-03-23T17:24:17;1008.29;;;32.60;59.69
37170;BME280;23062;13.952;100.608;2023-03-23T17:28:42;1008.22;;;32.60;59.67
37170;BME280;23062;13.952;100.608;2023-03-23T17:33:07;1008.17;;;32.59;59.70
37170;BME280;23062;13.952;100.608;2023-03-23T17:37:33;1008.16;;;32.59;59.92
37170;BME280;23062;13.952;100.608;2023-03-23T17:42:03;1008.10;;;32.58;59.99
37170;BME280;23062;13.952;100.608;2023-03-23T17:46:29;1008.11;;;32.58;59.98
37170;BME280;23062;13.952;100.608;2023-03-23T17:50:55;1008.06;;;32.56;60.10
37170;BME280;23062;13.952;100.608;2023-03-23T17:55:30;1008.00;;;32.55;60.03
37170;BME280;23062;13.952;100.608;2023-03-23T17:59:55;1007.99;;;32.54;60.01
37170;BME280;23062;13.952;100.608;2023-03-23T18:04:22;1007.95;;;32.53;60.07
37170;BME280;23062;13.952;100.608;2023-03-23T18:08:47;1007.95;;;32.52;59.83
37170;BME280;23062;13.952;100.608;2023-03-23T18:13:14;1007.98;;;32.51;59.84
37170;BME280;23062;13.952;100.608;2023-03-23T18:17:47;1007.98;;;32.51;60.07
37170;BME280;23062;13.952;100.608;2023-03-23T18:22:14;1007.94;;;32.51;59.98
37170;BME280;23062;13.952;100.608;2023-03-23T18:26:46;1007.87;;;32.49;60.01
37170;BME280;23062;13.952;100.608;2023-03-23T18:31:13;1007.73;;;32.49;59.98
37170;BME280;23062;13.952;100.608;2023-03-23T18:35:39;1007.71;;;32.49;60.15
37170;BME280;23062;13.952;100.608;2023-03-23T18:40:07;1007.67;;;32.48;60.22
37170;BME280;23062;13.952;100.608;2023-03-23T18:44:43;1007.57;;;32.47;60.18
37170;BME280;23062;13.952;100.608;2023-03-23T18:49:09;1007.46;;;32.45;60.19
37170;BME280;23062;13.952;100.608;2023-03-23T18:53:35;1007.45;;;32.45;60.45
37170;BME280;23062;13.952;100.608;2023-03-23T18:58:03;1007.42;;;32.44;60.45
37170;BME280;23062;13.952;100.608;2023-03-23T19:02:31;1007.39;;;32.43;60.56
37170;BME280;23062;13.952;100.608;2023-03-23T19:06:59;1007.34;;;32.42;60.72
37170;BME280;23062;13.952;100.608;2023-03-23T19:11:28;1007.30;;;32.41;60.76
37170;BME280;23062;13.952;100.608;2023-03-23T19:15:53;1007.26;;;32.40;60.75
37170;BME280;23062;13.952;100.608;2023-03-23T19:20:26;1007.29;;;32.39;60.89
37170;BME280;23062;13.952;100.608;2023-03-23T19:24:51;1007.25;;;32.38;60.99
37170;BME280;23062;13.952;100.608;2023-03-23T19:29:23;1007.27;;;32.37;60.69
37170;BME280;23062;13.952;100.608;2023-03-23T19:33:54;1007.30;;;32.37;61.18
37170;BME280;23062;13.952;100.608;2023-03-23T19:38:20;1007.22;;;32.37;60.96
37170;BME280;23062;13.952;100.608;2023-03-23T19:42:46;1007.23;;;32.36;61.13
37170;BME280;23062;13.952;100.608;2023-03-23T19:47:11;1007.21;;;32.23;61.11
37170;BME280;23062;13.952;100.608;2023-03-23T19:51:38;1007.17;;;32.09;61.76
37170;BME280;23062;13.952;100.608;2023-03-23T19:56:03;1007.16;;;32.10;61.89
37170;BME280;23062;13.952;100.608;2023-03-23T20:00:31;1007.12;;;32.07;62.04
37170;BME280;23062;13.952;100.608;2023-03-23T20:04:57;1007.07;;;32.10;62.01
37170;BME280;23062;13.952;100.608;2023-03-23T20:09:26;1007.05;;;32.12;62.02
37170;BME280;23062;13.952;100.608;2023-03-23T20:13:51;1007.01;;;32.12;62.03
37170;BME280;23062;13.952;100.608;2023-03-23T20:18:17;1007.01;;;32.11;62.08
37170;BME280;23062;13.952;100.608;2023-03-23T20:22:42;1007.02;;;32.12;62.11
37170;BME280;23062;13.952;100.608;2023-03-23T20:27:08;1006.99;;;32.13;62.12
37170;BME280;23062;13.952;100.608;2023-03-23T20:31:35;1007.00;;;32.10;62.21
37170;BME280;23062;13.952;100.608;2023-03-23T20:36:01;1006.98;;;31.90;63.19
37170;BME280;23062;13.952;100.608;2023-03-23T20:40:26;1007.00;;;31.75;63.87
37170;BME280;23062;13.952;100.608;2023-03-23T20:44:51;1007.01;;;31.65;64.40
37170;BME280;23062;13.952;100.608;2023-03-23T20:49:18;1007.02;;;31.57;64.73
37170;BME280;23062;13.952;100.608;2023-03-23T20:53:43;1007.02;;;31.53;65.01
37170;BME280;23062;13.952;100.608;2023-03-23T20:58:09;1007.03;;;31.48;65.29
37170;BME280;23062;13.952;100.608;2023-03-23T21:02:35;1007.07;;;31.47;65.48
37170;BME280;23062;13.952;100.608;2023-03-23T21:07:01;1007.12;;;31.43;65.68
37170;BME280;23062;13.952;100.608;2023-03-23T21:11:27;1007.12;;;31.41;65.96
37170;BME280;23062;13.952;100.608;2023-03-23T21:15:53;1007.14;;;31.36;66.27
37170;BME280;23062;13.952;100.608;2023-03-23T21:20:19;1007.17;;;31.33;66.42
37170;BME280;23062;13.952;100.608;2023-03-23T21:24:48;1007.18;;;31.30;66.65
37170;BME280;23062;13.952;100.608;2023-03-23T21:29:14;1007.27;;;31.34;66.65
37170;BME280;23062;13.952;100.608;2023-03-23T21:33:39;1007.22;;;31.26;66.84
37170;BME280;23062;13.952;100.608;2023-03-23T21:38:08;1007.30;;;31.27;66.89
37170;BME280;23062;13.952;100.608;2023-03-23T21:42:41;1007.31;;;31.29;66.97
37170;BME280;23062;13.952;100.608;2023-03-23T21:47:10;1007.25;;;31.24;67.27
37170;BME280;23062;13.952;100.608;2023-03-23T21:51:36;1007.29;;;31.24;67.37
37170;BME280;23062;13.952;100.608;2023-03-23T21:56:01;1007.34;;;31.27;69.19
37170;BME280;23062;13.952;100.608;2023-03-23T22:00:27;1007.32;;;31.27;68.29
37170;BME280;23062;13.952;100.608;2023-03-23T22:04:55;1007.31;;;31.30;67.95
37170;BME280;23062;13.952;100.608;2023-03-23T22:09:21;1007.38;;;31.28;67.94
37170;BME280;23062;13.952;100.608;2023-03-23T22:13:50;1007.42;;;31.24;68.03
37170;BME280;23062;13.952;100.608;2023-03-23T22:18:16;1007.48;;;31.23;68.24
37170;BME280;23062;13.952;100.608;2023-03-23T22:22:41;1007.53;;;31.25;68.15
37170;BME280;23062;13.952;100.608;2023-03-23T22:27:07;1007.61;;;31.21;68.76
37170;BME280;23062;13.952;100.608;2023-03-23T22:31:34;1007.62;;;31.18;69.14
37170;BME280;23062;13.952;100.608;2023-03-23T22:35:59;1007.67;;;31.18;69.19
37170;BME280;23062;13.952;100.608;2023-03-23T22:40:25;1007.69;;;31.08;69.35
37170;BME280;23062;13.952;100.608;2023-03-23T22:44:51;1007.72;;;31.22;68.94
37170;BME280;23062;13.952;100.608;2023-03-23T22:49:19;1007.81;;;31.32;68.75
37170;BME280;23062;13.952;100.608;2023-03-23T22:53:45;1007.85;;;31.40;68.57
37170;BME280;23062;13.952;100.608;2023-03-23T22:58:11;1007.86;;;31.57;67.98
37170;BME280;23062;13.952;100.608;2023-03-23T23:02:41;1007.96;;;31.62;67.66
37170;BME280;23062;13.952;100.608;2023-03-23T23:07:08;1008.10;;;31.65;67.56
37170;BME280;23062;13.952;100.608;2023-03-23T23:11:37;1008.14;;;31.66;67.48
37170;BME280;23062;13.952;100.608;2023-03-23T23:16:02;1008.16;;;31.65;67.54
37170;BME280;23062;13.952;100.608;2023-03-23T23:20:30;1008.18;;;31.66;67.50
37170;BME280;23062;13.952;100.608;2023-03-23T23:24:55;1008.28;;;31.67;67.50
37170;BME280;23062;13.952;100.608;2023-03-23T23:29:20;1008.36;;;31.66;67.33
37170;BME280;23062;13.952;100.608;2023-03-23T23:33:45;1008.46;;;31.63;67.35
37170;BME280;23062;13.952;100.608;2023-03-23T23:38:11;1008.48;;;31.62;67.34
37170;BME280;23062;13.952;100.608;2023-03-23T23:42:37;1008.60;;;31.64;67.39
37170;BME280;23062;13.952;100.608;2023-03-23T23:47:05;1008.70;;;31.63;67.39
37170;BME280;23062;13.952;100.608;2023-03-23T23:51:30;1008.74;;;31.63;67.43
37170;BME280;23062;13.952;100.608;2023-03-23T23:56:00;1008.78;;;31.61;67.50
